createdAt,value
2022-08-14T00:00:18.292Z,21.10
2022-08-14T00:03:06.449Z,21.00
2022-08-14T00:06:45.513Z,20.90
2022-08-14T00:09:55.151Z,20.70
2022-08-14T00:12:47.976Z,20.80
2022-08-14T00:15:44.320Z,20.70
2022-08-14T00:19:05.393Z,20.70
2022-08-14T00:21:42.008Z,20.60
2022-08-14T00:24:31.004Z,20.70
2022-08-14T00:27:18.729Z,20.60
2022-08-14T00:30:11.023Z,20.60
2022-08-14T00:33:14.529Z,20.40
2022-08-14T00:36:35.754Z,20.10
2022-08-14T00:39:14.680Z,19.90
2022-08-14T00:42:06.439Z,19.90
2022-08-14T00:44:55.530Z,20.10
2022-08-14T00:47:47.927Z,20.20
2022-08-14T00:50:35.185Z,20.20
2022-08-14T00:53:25.461Z,20.30
2022-08-14T00:56:15.573Z,20.30
2022-08-14T00:59:02.417Z,20.20
2022-08-14T01:01:49.563Z,20.00
2022-08-14T01:04:54.230Z,20.00
2022-08-14T01:07:50.360Z,20.10
2022-08-14T01:10:53.833Z,20.10
2022-08-14T01:13:42.488Z,20.10
2022-08-14T01:16:31.841Z,20.20
2022-08-14T01:19:36.512Z,20.10
2022-08-14T01:22:26.925Z,20.10
2022-08-14T01:25:16.759Z,20.00
2022-08-14T01:28:04.597Z,20.00
2022-08-14T01:31:00.102Z,19.80
2022-08-14T01:34:00.299Z,19.70
2022-08-14T01:36:58.192Z,19.80
2022-08-14T01:39:47.455Z,19.70
2022-08-14T01:42:36.077Z,20.00
2022-08-14T01:45:25.552Z,20.00
2022-08-14T01:48:16.058Z,20.00
2022-08-14T01:51:18.718Z,20.10
2022-08-14T01:54:10.215Z,19.90
2022-08-14T01:57:03.344Z,19.80
2022-08-14T01:59:56.806Z,19.70
2022-08-14T02:02:46.569Z,19.60
2022-08-14T02:05:38.479Z,19.60
2022-08-14T02:13:46.489Z,19.80
2022-08-14T02:16:40.293Z,19.60
2022-08-14T02:19:31.568Z,19.50
2022-08-14T02:22:29.096Z,19.70
2022-08-14T02:25:20.840Z,19.70
2022-08-14T02:28:25.798Z,19.70
2022-08-14T02:31:17.969Z,19.80
2022-08-14T02:34:22.185Z,19.70
2022-08-14T02:37:15.935Z,19.70
2022-08-14T02:40:05.508Z,19.70
2022-08-14T02:42:55.232Z,19.80
2022-08-14T02:45:47.794Z,19.90
2022-08-14T02:49:04.191Z,20.00
2022-08-14T02:51:48.355Z,20.00
2022-08-14T02:54:40.093Z,20.10
2022-08-14T02:57:40.109Z,20.10
2022-08-14T03:00:27.927Z,19.80
2022-08-14T03:03:16.937Z,19.80
2022-08-14T03:06:06.437Z,19.80
2022-08-14T03:08:57.235Z,20.00
2022-08-14T03:11:45.431Z,20.10
2022-08-14T03:14:37.803Z,20.10
2022-08-14T03:17:25.196Z,20.10
2022-08-14T03:20:13.300Z,20.10
2022-08-14T03:23:02.975Z,19.90
2022-08-14T03:25:51.547Z,19.90
2022-08-14T03:28:40.434Z,19.90
2022-08-14T03:31:30.093Z,19.80
2022-08-14T03:34:24.333Z,19.90
2022-08-14T03:37:38.258Z,19.90
2022-08-14T03:40:25.079Z,19.80
2022-08-14T03:43:13.286Z,19.70
2022-08-14T03:46:04.425Z,19.70
2022-08-14T03:54:27.302Z,19.80
2022-08-14T03:57:16.693Z,19.60
2022-08-14T04:00:08.789Z,19.50
2022-08-14T04:03:02.325Z,19.60
2022-08-14T04:11:10.315Z,19.90
2022-08-14T04:14:01.172Z,20.00
2022-08-14T04:16:48.368Z,20.10
2022-08-14T04:19:36.616Z,20.10
2022-08-14T04:22:25.145Z,20.20
2022-08-14T04:25:12.826Z,20.20
2022-08-14T04:28:03.591Z,20.10
2022-08-14T04:30:53.130Z,20.20
2022-08-14T04:33:48.372Z,20.00
2022-08-14T04:42:08.108Z,20.00
2022-08-14T04:45:01.443Z,19.80
2022-08-14T04:48:10.061Z,19.90
2022-08-14T04:50:57.490Z,20.10
2022-08-14T04:53:48.195Z,20.20
2022-08-14T04:56:35.484Z,20.20
2022-08-14T04:59:23.830Z,20.10
2022-08-14T05:02:11.099Z,20.30
2022-08-14T05:04:59.714Z,20.30
2022-08-14T05:08:01.481Z,20.30
2022-08-14T05:10:52.140Z,20.40
2022-08-14T05:13:59.573Z,20.50
2022-08-14T05:16:48.157Z,20.70
2022-08-14T05:19:44.436Z,20.80
2022-08-14T05:22:43.622Z,21.00
2022-08-14T05:25:33.706Z,21.20
2022-08-14T05:28:23.612Z,21.40
2022-08-14T05:31:11.378Z,21.50
2022-08-14T05:33:58.596Z,21.50
2022-08-14T05:36:50.691Z,21.60
2022-08-14T05:39:51.501Z,21.70
2022-08-14T05:42:38.944Z,22.00
2022-08-14T05:45:25.911Z,22.10
2022-08-14T05:48:32.720Z,22.30
2022-08-14T05:51:21.231Z,22.30
2022-08-14T05:54:13.499Z,22.30
2022-08-14T05:57:09.481Z,22.50
2022-08-14T05:59:56.959Z,22.60
2022-08-14T06:02:44.741Z,23.10
2022-08-14T06:05:32.549Z,23.60
2022-08-14T06:08:36.254Z,24.00
2022-08-14T06:11:30.940Z,24.50
2022-08-14T06:14:23.855Z,24.60
2022-08-14T06:17:11.414Z,24.40
2022-08-14T06:20:13.661Z,24.60
2022-08-14T06:23:00.843Z,24.90
2022-08-14T06:25:52.699Z,24.70
2022-08-14T06:28:41.053Z,24.80
2022-08-14T06:31:33.998Z,25.20
2022-08-14T06:35:02.915Z,25.40
2022-08-14T06:37:28.610Z,25.60
2022-08-14T06:40:27.624Z,25.60
2022-08-14T06:43:16.226Z,25.40
2022-08-14T06:46:04.877Z,25.70
2022-08-14T06:49:01.672Z,25.70
2022-08-14T06:51:49.983Z,25.70
2022-08-14T06:54:40.936Z,25.80
2022-08-14T06:57:37.358Z,25.80
2022-08-14T07:00:31.483Z,25.50
2022-08-14T07:03:36.723Z,25.50
2022-08-14T07:06:46.311Z,25.70
2022-08-14T07:09:50.691Z,25.70
2022-08-14T07:12:56.523Z,25.70
2022-08-14T07:15:47.210Z,26.10
2022-08-14T07:18:38.247Z,26.40
2022-08-14T07:21:29.482Z,26.70
2022-08-14T07:24:21.695Z,27.30
2022-08-14T07:28:00.084Z,26.90
2022-08-14T07:30:50.936Z,27.40
2022-08-14T07:33:41.911Z,27.30
2022-08-14T07:36:31.936Z,27.70
2022-08-14T07:39:19.193Z,27.60
2022-08-14T07:42:15.262Z,27.30
2022-08-14T07:45:07.905Z,27.10
2022-08-14T07:47:57.909Z,27.40
2022-08-14T07:50:45.550Z,27.80
2022-08-14T07:53:39.235Z,27.90
2022-08-14T07:56:46.877Z,27.70
2022-08-14T07:59:40.919Z,28.10
2022-08-14T08:02:32.507Z,28.40
2022-08-14T08:05:21.450Z,28.70
2022-08-14T08:08:26.910Z,28.70
2022-08-14T08:11:19.369Z,28.10
2022-08-14T08:14:17.311Z,28.60
2022-08-14T08:17:06.348Z,29.10
2022-08-14T08:19:53.809Z,29.10
2022-08-14T08:22:43.503Z,28.90
2022-08-14T08:25:40.101Z,28.70
2022-08-14T08:28:30.169Z,29.30
2022-08-14T08:31:17.681Z,29.30
2022-08-14T08:34:07.312Z,29.70
2022-08-14T08:37:07.092Z,29.70
2022-08-14T08:40:03.144Z,30.30
2022-08-14T08:42:53.088Z,30.40
2022-08-14T08:45:42.190Z,30.10
2022-08-14T08:48:31.378Z,29.50
2022-08-14T08:51:33.268Z,29.40
2022-08-14T08:54:26.721Z,30.20
2022-08-14T08:57:21.563Z,30.30
2022-08-14T09:00:25.028Z,30.10
2022-08-14T09:03:17.727Z,29.80
2022-08-14T09:06:09.498Z,29.80
2022-08-14T09:09:20.126Z,30.00
2022-08-14T09:12:14.016Z,30.10
2022-08-14T09:15:03.988Z,30.40
2022-08-14T09:18:00.528Z,30.10
2022-08-14T09:20:51.853Z,30.60
2022-08-14T09:24:26.104Z,30.30
2022-08-14T09:26:50.122Z,30.40
2022-08-14T09:29:37.769Z,29.80
2022-08-14T09:32:59.361Z,29.40
2022-08-14T09:36:01.581Z,30.00
2022-08-14T09:38:59.430Z,30.00
2022-08-14T09:42:20.766Z,30.40
2022-08-14T09:45:16.673Z,30.60
2022-08-14T09:48:17.473Z,30.80
2022-08-14T09:58:22.749Z,30.40
2022-08-14T10:01:13.791Z,30.10
2022-08-14T10:04:00.832Z,30.70
2022-08-14T10:06:51.183Z,30.80
2022-08-14T10:09:57.673Z,31.10
2022-08-14T10:12:50.211Z,31.10
2022-08-14T10:16:08.718Z,31.00
2022-08-14T10:19:11.878Z,31.00
2022-08-14T10:23:22.233Z,31.30
2022-08-14T10:25:15.300Z,31.60
2022-08-14T10:28:03.164Z,32.00
2022-08-14T10:30:54.062Z,32.30
2022-08-14T10:39:09.873Z,31.90
2022-08-14T10:42:04.476Z,31.90
2022-08-14T10:45:04.950Z,31.80
2022-08-14T10:48:07.450Z,31.60
2022-08-14T10:56:21.484Z,31.50
2022-08-14T10:59:21.214Z,31.30
2022-08-14T11:02:35.835Z,30.60
2022-08-14T11:05:28.415Z,30.30
2022-08-14T11:08:17.215Z,30.80
2022-08-14T11:11:07.097Z,30.70
2022-08-14T11:13:58.423Z,30.90
2022-08-14T11:16:49.006Z,30.50
2022-08-14T11:25:10.329Z,31.30
2022-08-14T11:28:01.261Z,31.40
2022-08-14T11:30:54.148Z,31.70
2022-08-14T11:33:41.942Z,31.50
2022-08-14T11:41:55.728Z,31.20
2022-08-14T11:45:37.117Z,31.00
2022-08-14T11:49:04.167Z,31.00
2022-08-14T11:51:52.990Z,31.10
2022-08-14T11:54:41.305Z,31.30
2022-08-14T11:57:30.502Z,31.30
2022-08-14T12:00:19.819Z,31.30
2022-08-14T12:03:07.630Z,31.30
2022-08-14T12:06:06.381Z,31.40
2022-08-14T12:09:14.972Z,31.10
2022-08-14T12:12:02.745Z,31.20
2022-08-14T12:14:54.039Z,30.80
2022-08-14T12:17:49.689Z,30.80
2022-08-14T12:20:45.814Z,30.60
2022-08-14T12:23:41.663Z,30.70
2022-08-14T12:26:39.026Z,31.10
2022-08-14T12:29:27.645Z,31.10
2022-08-14T12:32:17.305Z,31.10
2022-08-14T12:35:05.150Z,31.10
2022-08-14T12:37:53.457Z,30.90
2022-08-14T12:40:49.515Z,30.80
2022-08-14T12:43:46.428Z,31.00
2022-08-14T12:51:57.721Z,30.90
2022-08-14T12:55:01.352Z,31.10
2022-08-14T12:57:55.348Z,31.10
2022-08-14T13:01:14.711Z,30.80
2022-08-14T13:04:10.339Z,30.90
2022-08-14T13:07:08.425Z,30.60
2022-08-14T13:09:56.883Z,30.90
2022-08-14T13:13:11.595Z,31.30
2022-08-14T13:20:55.445Z,31.10
2022-08-14T13:23:45.328Z,31.20
2022-08-14T13:26:33.409Z,31.40
2022-08-14T13:29:21.777Z,31.40
2022-08-14T13:37:29.012Z,31.50
2022-08-14T13:40:18.711Z,31.40
2022-08-14T13:47:33.503Z,31.30
2022-08-14T13:50:21.207Z,31.30
2022-08-14T13:53:13.734Z,31.30
2022-08-14T13:56:02.466Z,31.00
2022-08-14T13:58:50.199Z,30.90
2022-08-14T14:01:43.847Z,30.80
2022-08-14T14:04:33.319Z,30.90
2022-08-14T14:07:23.474Z,31.10
2022-08-14T14:10:13.661Z,31.10
2022-08-14T14:13:02.823Z,30.90
2022-08-14T14:15:58.175Z,31.20
2022-08-14T14:19:36.507Z,31.20
2022-08-14T14:23:00.913Z,31.30
2022-08-14T14:25:45.897Z,31.10
2022-08-14T14:28:36.422Z,31.30
2022-08-14T14:31:29.940Z,31.20
2022-08-14T14:34:29.513Z,31.20
2022-08-14T14:37:18.041Z,31.20
2022-08-14T14:40:52.781Z,31.20
2022-08-14T14:43:17.533Z,31.10
2022-08-14T14:46:09.221Z,31.20
2022-08-14T14:48:57.338Z,31.30
2022-08-14T14:51:46.750Z,31.20
2022-08-14T14:54:39.329Z,31.30
2022-08-14T14:57:35.305Z,31.40
2022-08-14T15:00:24.594Z,31.40
2022-08-14T15:03:18.286Z,31.40
2022-08-14T15:06:06.497Z,31.30
2022-08-14T15:08:56.558Z,31.40
2022-08-14T15:11:47.319Z,31.40
2022-08-14T15:14:55.010Z,31.50
2022-08-14T15:23:12.204Z,31.40
2022-08-14T15:26:00.084Z,31.40
2022-08-14T15:28:48.433Z,31.30
2022-08-14T15:31:50.094Z,31.30
2022-08-14T15:34:51.573Z,31.10
2022-08-14T15:37:42.245Z,31.10
2022-08-14T15:40:31.396Z,31.10
2022-08-14T15:43:25.500Z,31.20
2022-08-14T15:46:41.359Z,31.20
2022-08-14T15:49:21.911Z,31.20
2022-08-14T15:52:09.205Z,31.20
2022-08-14T15:54:58.659Z,31.20
2022-08-14T15:58:02.323Z,31.20
2022-08-14T16:01:10.033Z,31.20
2022-08-14T16:03:57.917Z,31.30
2022-08-14T16:06:45.608Z,31.10
2022-08-14T16:09:42.144Z,31.20
2022-08-14T16:12:41.185Z,31.20
2022-08-14T16:15:41.619Z,31.20
2022-08-14T16:18:41.751Z,31.10
2022-08-14T16:21:31.730Z,31.00
2022-08-14T16:24:26.832Z,31.00
2022-08-14T16:28:07.205Z,31.00
2022-08-14T16:30:56.395Z,30.90
2022-08-14T16:36:51.216Z,30.80
2022-08-14T16:39:40.986Z,30.90
2022-08-14T16:43:25.794Z,30.80
2022-08-14T16:46:18.428Z,30.90
2022-08-14T16:49:11.036Z,30.80
2022-08-14T16:51:58.458Z,30.70
2022-08-14T16:54:47.361Z,30.50
2022-08-14T16:57:35.063Z,30.60
2022-08-14T17:00:32.859Z,30.50
2022-08-14T17:03:21.741Z,30.50
2022-08-14T17:11:27.824Z,30.60
2022-08-14T17:14:15.803Z,30.50
2022-08-14T17:17:06.207Z,30.50
2022-08-14T17:20:02.182Z,30.40
2022-08-14T17:31:58.662Z,30.30
2022-08-14T17:34:47.779Z,30.20
2022-08-14T17:37:39.229Z,30.10
2022-08-14T17:45:58.021Z,30.00
2022-08-14T17:49:14.401Z,29.90
2022-08-14T17:52:03.735Z,29.80
2022-08-14T17:54:59.151Z,29.70
2022-08-14T18:03:06.752Z,29.70
2022-08-14T18:06:08.528Z,29.70
2022-08-14T18:09:26.352Z,29.50
2022-08-14T18:12:31.787Z,29.50
2022-08-14T18:15:19.797Z,29.50
2022-08-14T18:18:11.065Z,29.40
2022-08-14T18:21:57.464Z,29.40
2022-08-14T18:24:46.549Z,29.30
2022-08-14T18:27:38.626Z,29.20
2022-08-14T18:30:33.179Z,29.10
2022-08-14T18:33:27.427Z,29.10
2022-08-14T18:36:47.555Z,29.00
2022-08-14T18:40:01.224Z,28.70
2022-08-14T18:42:51.074Z,28.50
2022-08-14T18:46:01.614Z,28.30
2022-08-14T18:49:15.054Z,28.20
2022-08-14T18:52:18.685Z,28.10
2022-08-14T18:55:53.500Z,28.00
2022-08-14T18:59:35.495Z,27.90
2022-08-14T19:02:48.266Z,27.80
2022-08-14T19:06:00.034Z,27.70
2022-08-14T19:08:49.334Z,27.70
2022-08-14T19:11:50.285Z,27.60
2022-08-14T19:14:50.466Z,27.50
2022-08-14T19:18:10.719Z,27.50
2022-08-14T19:26:36.076Z,27.40
2022-08-14T19:29:38.338Z,27.30
2022-08-14T19:32:42.525Z,27.20
2022-08-14T19:35:55.045Z,27.20
2022-08-14T19:38:59.280Z,27.10
2022-08-14T19:47:01.339Z,27.10
2022-08-14T19:50:24.858Z,27.00
2022-08-14T19:53:05.149Z,27.00
2022-08-14T19:56:01.954Z,26.90
2022-08-14T20:04:02.516Z,26.80
2022-08-14T20:06:52.283Z,26.80
2022-08-14T20:11:03.672Z,26.80
2022-08-14T20:12:58.280Z,26.80
2022-08-14T20:15:47.103Z,26.70
2022-08-14T20:18:51.050Z,26.70
2022-08-14T20:21:58.538Z,26.60
2022-08-14T20:24:50.005Z,26.60
2022-08-14T20:27:44.165Z,26.60
2022-08-14T20:30:33.726Z,26.50
2022-08-14T20:33:24.691Z,26.40
2022-08-14T20:36:16.108Z,26.40
2022-08-14T20:39:15.462Z,26.40
2022-08-14T20:42:30.570Z,26.30
2022-08-14T20:45:19.836Z,26.30
2022-08-14T20:48:09.263Z,26.20
2022-08-14T20:50:58.387Z,26.20
2022-08-14T20:53:57.472Z,26.20
2022-08-14T20:56:48.144Z,26.20
2022-08-14T20:59:43.728Z,26.20
2022-08-14T21:02:46.475Z,26.10
2022-08-14T21:05:37.284Z,25.90
2022-08-14T21:08:25.918Z,25.60
2022-08-14T21:11:17.740Z,25.30
2022-08-14T21:14:25.157Z,25.10
2022-08-14T21:17:13.580Z,25.00
2022-08-14T21:20:26.209Z,24.90
2022-08-14T21:28:35.331Z,24.70
2022-08-14T21:31:22.706Z,24.80
2022-08-14T21:34:31.434Z,24.90
2022-08-14T21:37:19.865Z,25.00
2022-08-14T21:40:31.695Z,25.10
2022-08-14T21:44:17.973Z,25.20
2022-08-14T21:47:07.635Z,25.20
2022-08-14T21:56:38.777Z,25.30
2022-08-14T21:59:31.138Z,25.30
2022-08-14T22:02:32.257Z,25.20
2022-08-14T22:05:21.890Z,25.10
2022-08-14T22:08:14.134Z,25.10
2022-08-14T22:17:01.557Z,25.00
2022-08-14T22:19:23.061Z,24.90
2022-08-14T22:22:21.753Z,24.90
2022-08-14T22:25:16.121Z,25.00
2022-08-14T22:28:06.414Z,25.00
2022-08-14T22:30:57.780Z,24.90
2022-08-14T22:33:47.489Z,24.90
2022-08-14T22:36:48.801Z,24.90
2022-08-14T22:40:16.927Z,24.80
2022-08-14T22:42:59.987Z,24.70
2022-08-14T22:45:55.257Z,24.60
2022-08-14T22:48:46.535Z,24.60
2022-08-14T22:51:41.829Z,24.60
2022-08-14T22:54:52.302Z,24.60
2022-08-14T22:57:43.348Z,24.60
2022-08-14T23:00:31.706Z,24.50
2022-08-14T23:03:19.684Z,24.30
2022-08-14T23:07:03.212Z,24.30
2022-08-14T23:09:34.992Z,24.20
2022-08-14T23:12:27.511Z,24.10
2022-08-14T23:15:30.288Z,24.10
2022-08-14T23:18:17.950Z,24.10
2022-08-14T23:31:36.107Z,24.00
2022-08-14T23:34:25.730Z,24.00
2022-08-14T23:37:17.254Z,23.90
2022-08-14T23:40:05.247Z,23.90
2022-08-14T23:43:14.946Z,23.90
2022-08-14T23:50:38.212Z,23.80
2022-08-14T23:53:47.227Z,23.70
2022-08-14T23:56:35.645Z,23.70
2022-08-14T23:59:22.826Z,23.60
